Time;durP1;ratioP1;P1;durP2;ratioP2;P2;SDS_P1;SDS_P2;PMS_P1;PMS_P2;Temp;Humidity;BMP_temperature;BMP_pressure;BME280_temperature;BME280_humidity;BME280_pressure;Samples;Min_cycle;Max_cycle;Signal;HPM_P1;HPM_P2
2022/06/23 03:02:42;;;;;;;6.72;4.30;;;27.10;48.10;;;;;;5147024;23;45563;-56
2022/06/23 03:05:19;;;;;;;6.07;4.22;;;27.20;47.90;;;;;;4926520;28;45070;-55
2022/06/23 03:08:09;;;;;;;6.35;4.28;;;27.20;47.70;;;;;;4933684;28;44798;-55
2022/06/23 03:10:40;;;;;;;8.02;4.45;;;27.20;47.70;;;;;;4934730;28;45564;-57
2022/06/23 03:13:28;;;;;;;7.20;4.75;;;27.20;47.70;;;;;;4923127;28;45559;-58
2022/06/23 03:16:31;;;;;;;7.20;4.22;;;27.10;48.20;;;;;;4907030;28;45019;-57
2022/06/23 03:19:11;;;;;;;5.57;3.92;;;27.20;47.60;;;;;;4939724;28;44984;-57
2022/06/23 03:22:04;;;;;;;6.35;4.05;;;27.10;47.50;;;;;;4921396;28;46350;-57
2022/06/23 03:24:34;;;;;;;;;;;27.10;47.50;;;;;;4929227;28;45046;-58
2022/06/23 03:27:03;;;;;;;5.65;3.55;;;27.00;47.50;;;;;;4924993;28;45508;-57
2022/06/23 03:29:32;;;;;;;5.45;4.38;;;27.00;47.60;;;;;;4926580;28;45723;-57
2022/06/23 03:32:20;;;;;;;8.25;4.40;;;27.00;47.70;;;;;;4923782;28;47240;-56
2022/06/23 03:34:46;;;;;;;4.80;3.95;;;27.00;47.70;;;;;;4919676;28;45262;-57
2022/06/23 03:37:31;;;;;;;5.35;4.30;;;26.90;47.60;;;;;;4937110;28;45787;-57
2022/06/23 03:43:23;;;;;;;5.10;4.10;;;26.90;47.80;;;;;;4905778;28;46909;-57
2022/06/23 03:46:18;;;;;;;7.00;4.35;;;27.00;47.80;;;;;;4922403;28;45095;-57
2022/06/23 03:49:13;;;;;;;5.97;3.97;;;27.00;47.90;;;;;;4902195;28;45008;-58
2022/06/23 03:52:00;;;;;;;5.60;3.72;;;27.00;48.00;;;;;;4918640;28;45491;-59
2022/06/23 03:55:01;;;;;;;5.28;4.18;;;26.90;47.80;;;;;;4881007;28;47051;-58
2022/06/23 03:57:56;;;;;;;7.32;3.65;;;27.00;48.00;;;;;;4909092;28;44937;-57
2022/06/23 04:01:04;;;;;;;4.97;4.20;;;26.90;47.90;;;;;;4900093;28;45541;-59
2022/06/23 04:04:04;;;;;;;6.85;4.20;;;26.90;47.90;;;;;;4908580;28;45305;-58
2022/06/23 04:06:51;;;;;;;10.65;4.80;;;26.90;48.10;;;;;;4906744;28;46929;-58
2022/06/23 04:09:36;;;;;;;6.28;4.20;;;26.90;47.90;;;;;;4923368;28;45056;-59
2022/06/23 04:12:22;;;;;;;5.15;4.40;;;26.90;47.90;;;;;;4919647;28;45581;-58
2022/06/23 04:15:10;;;;;;;7.88;4.68;;;26.90;47.90;;;;;;4901111;28;44828;-58
2022/06/23 04:18:00;;;;;;;4.55;4.05;;;26.90;48.10;;;;;;4908352;28;47107;-60
2022/06/23 04:20:58;;;;;;;4.55;3.47;;;26.90;48.10;;;;;;4905836;28;45588;-57
2022/06/23 04:23:51;;;;;;;5.05;4.05;;;26.90;48.20;;;;;;4915076;28;44760;-58
2022/06/23 04:26:39;;;;;;;5.60;4.28;;;26.90;48.30;;;;;;4903761;28;45164;-57
2022/06/23 04:29:26;;;;;;;4.07;3.67;;;27.00;48.30;;;;;;4899666;28;45210;-58
2022/06/23 04:32:17;;;;;;;4.13;3.45;;;27.00;48.20;;;;;;4902804;28;45044;-59
2022/06/23 04:35:05;;;;;;;6.38;3.90;;;27.00;48.30;;;;;;4912509;28;45542;-60
2022/06/23 04:37:56;;;;;;;4.68;3.95;;;27.00;48.40;;;;;;4919862;28;45510;-59
2022/06/23 04:40:42;;;;;;;6.38;3.65;;;27.00;48.40;;;;;;4904431;28;45542;-58
2022/06/23 04:43:45;;;;;;;6.70;4.47;;;27.00;48.50;;;;;;4922219;28;45756;-58
2022/06/23 04:46:36;;;;;;;6.45;4.07;;;27.00;48.70;;;;;;4913057;28;45072;-55
2022/06/23 04:49:31;;;;;;;6.45;3.90;;;27.00;48.70;;;;;;4905055;28;45497;-59
2022/06/23 04:52:33;;;;;;;5.75;4.00;;;27.00;48.80;;;;;;4908188;28;45768;-59
2022/06/23 04:55:23;;;;;;;4.10;3.70;;;27.00;49.10;;;;;;4905126;28;45847;-58
2022/06/23 04:58:15;;;;;;;5.00;4.10;;;27.00;49.20;;;;;;4911070;28;44923;-59
2022/06/23 05:00:42;;;;;;;7.45;4.43;;;27.00;49.40;;;;;;4919041;28;45541;-58
2022/06/23 05:03:44;;;;;;;6.25;4.47;;;26.90;49.30;;;;;;4923159;28;46853;-59
2022/06/23 05:06:40;;;;;;;5.32;4.22;;;27.00;49.70;;;;;;4910943;28;45568;-59
2022/06/23 05:09:27;;;;;;;8.00;4.70;;;27.00;49.40;;;;;;4937630;28;45517;-60
2022/06/23 05:12:26;;;;;;;6.20;4.30;;;27.00;49.60;;;;;;4913878;28;45352;-60
2022/06/23 05:15:21;;;;;;;5.65;3.92;;;27.00;49.90;;;;;;4898794;28;45483;-59
2022/06/23 05:17:51;;;;;;;6.60;4.20;;;27.10;49.60;;;;;;4936642;28;45506;-59
2022/06/23 05:20:20;;;;;;;4.78;3.80;;;27.10;49.50;;;;;;4925623;28;45335;-58
2022/06/23 05:22:46;;;;;;;8.45;4.57;;;27.10;49.60;;;;;;4923008;28;45084;-58
2022/06/23 05:25:30;;;;;;;6.25;4.47;;;27.10;49.70;;;;;;4920539;28;45889;-59
2022/06/23 05:27:56;;;;;;;5.10;4.05;;;27.20;50.00;;;;;;4922523;28;45195;-56
2022/06/23 05:30:26;;;;;;;7.10;4.32;;;27.20;49.60;;;;;;4923293;28;45068;-58
2022/06/23 05:33:13;;;;;;;4.63;4.07;;;27.20;49.80;;;;;;4927638;28;44905;-56
2022/06/23 05:35:42;;;;;;;6.15;4.38;;;27.30;50.60;;;;;;4923393;28;47135;-56
2022/06/23 05:38:30;;;;;;;7.22;4.47;;;27.30;50.20;;;;;;4930230;28;45393;-57
2022/06/23 05:41:02;;;;;;;6.65;4.45;;;27.30;50.90;;;;;;4948102;28;45518;-57
2022/06/23 05:43:28;;;;;;;7.07;4.30;;;27.30;50.70;;;;;;4908824;28;45630;-56
2022/06/23 05:45:56;;;;;;;7.18;4.25;;;27.30;50.60;;;;;;4938476;28;45991;-57
2022/06/23 05:48:42;;;;;;;4.97;3.38;;;27.30;50.80;;;;;;4922070;28;45429;-53
2022/06/23 05:51:13;;;;;;;8.23;3.80;;;27.30;51.40;;;;;;4939663;28;45154;-58
2022/06/23 05:53:59;;;;;;;6.30;4.00;;;27.30;50.80;;;;;;4937753;28;45194;-56
2022/06/23 05:56:38;;;;;;;7.20;4.28;;;27.30;50.80;;;;;;4927940;28;46787;-57
2022/06/23 05:59:14;;;;;;;5.68;3.90;;;27.30;51.00;;;;;;4921304;28;45483;-59
2022/06/23 06:02:10;;;;;;;7.20;4.03;;;27.40;50.90;;;;;;4925242;28;45601;-56
2022/06/23 06:04:42;;;;;;;7.65;3.70;;;27.40;51.30;;;;;;4910886;28;45772;-59
2022/06/23 06:07:09;;;;;;;5.67;3.53;;;27.40;50.50;;;;;;4936753;28;45231;-56
2022/06/23 06:09:36;;;;;;;5.05;4.03;;;27.40;50.30;;;;;;4920976;28;45635;-58
2022/06/23 06:12:16;;;;;;;4.85;3.58;;;27.50;50.20;;;;;;4925992;28;45536;-55
2022/06/23 06:14:49;;;;;;;8.00;3.42;;;27.50;50.30;;;;;;4930177;28;45274;-56
2022/06/23 06:17:20;;;;;;;5.35;3.65;;;27.50;50.20;;;;;;4908864;28;46200;-56
2022/06/23 06:19:46;;;;;;;5.43;3.42;;;27.60;50.00;;;;;;4930071;28;45824;-57
2022/06/23 06:22:27;;;;;;;6.40;3.53;;;27.60;49.90;;;;;;4927001;28;45020;-57
2022/06/23 06:24:53;;;;;;;5.97;3.58;;;27.60;49.90;;;;;;4916555;28;45144;-56
2022/06/23 06:27:19;;;;;;;6.90;3.78;;;27.70;49.70;;;;;;4933770;28;46179;-56
2022/06/23 06:29:45;;;;;;;5.03;3.33;;;27.70;49.70;;;;;;4936623;28;45307;-58
2022/06/23 06:32:17;;;;;;;6.07;3.22;;;27.80;49.60;;;;;;4948090;28;45201;-59
2022/06/23 06:34:50;;;;;;;5.53;3.20;;;27.80;49.50;;;;;;4933668;28;45496;-56
2022/06/23 06:37:15;;;;;;;5.35;3.33;;;27.90;49.50;;;;;;4928022;28;45544;-58
2022/06/23 06:39:44;;;;;;;5.10;3.30;;;28.00;49.40;;;;;;4911300;28;45581;-55
2022/06/23 06:42:14;;;;;;;4.43;3.33;;;28.00;49.30;;;;;;4911846;28;45647;-56
2022/06/23 06:44:45;;;;;;;8.80;3.55;;;28.10;49.20;;;;;;4925983;28;45681;-58
2022/06/23 06:47:19;;;;;;;5.35;3.20;;;28.10;49.10;;;;;;4937066;28;46156;-56
2022/06/23 06:49:46;;;;;;;6.10;4.18;;;28.20;49.00;;;;;;4926184;28;45626;-54
2022/06/23 06:52:14;;;;;;;4.88;3.38;;;28.30;48.80;;;;;;4940152;28;45370;-54
2022/06/23 06:54:45;;;;;;;5.38;3.17;;;28.40;48.80;;;;;;4943291;28;45287;-58
2022/06/23 06:57:44;;;;;;;5.43;3.35;;;28.40;48.60;;;;;;4923200;28;45639;-57
2022/06/23 07:00:15;;;;;;;4.05;2.97;;;28.50;48.70;;;;;;4948331;28;45151;-57
2022/06/23 07:02:43;;;;;;;4.75;2.90;;;28.50;48.60;;;;;;4922503;28;45636;-56
2022/06/23 07:05:21;;;;;;;6.15;3.28;;;28.50;48.50;;;;;;4929783;28;45172;-54
2022/06/23 07:07:51;;;;;;;3.60;2.78;;;28.50;48.50;;;;;;4918966;28;46130;-57
2022/06/23 07:10:24;;;;;;;4.57;2.95;;;28.50;48.50;;;;;;4940104;28;45409;-57
2022/06/23 07:12:51;;;;;;;;;;;28.60;48.60;;;;;;4906395;28;45553;-57
2022/06/23 07:15:37;;;;;;;3.50;2.55;;;28.60;48.60;;;;;;4935743;28;45501;-54
2022/06/23 07:18:35;;;;;;;4.22;2.65;;;28.60;48.50;;;;;;4919403;28;46010;-57
2022/06/23 07:21:09;;;;;;;4.03;2.70;;;28.60;48.50;;;;;;4919369;28;45129;-57
2022/06/23 07:23:43;;;;;;;8.80;3.20;;;28.60;48.50;;;;;;4925526;28;44695;-59
2022/06/23 07:26:42;;;;;;;7.65;3.17;;;28.70;48.50;;;;;;4922040;28;45176;-59
2022/06/23 07:29:15;;;;;;;2.95;2.65;;;28.70;48.50;;;;;;4925690;28;47222;-59
2022/06/23 07:31:55;;;;;;;4.65;3.03;;;28.70;48.40;;;;;;4922723;28;45230;-57
2022/06/23 07:34:20;;;;;;;4.78;3.00;;;28.80;48.40;;;;;;4922571;28;44795;-60
2022/06/23 07:36:55;;;;;;;3.15;2.50;;;28.80;48.40;;;;;;4928305;28;45652;-59
2022/06/23 07:39:23;;;;;;;3.10;2.80;;;28.80;48.40;;;;;;4929411;28;46992;-55
2022/06/23 07:42:07;;;;;;;5.25;3.05;;;28.80;48.30;;;;;;4947873;28;45464;-58
2022/06/23 07:44:42;;;;;;;6.00;2.90;;;28.80;48.20;;;;;;4955801;28;45459;-58
2022/06/23 07:47:08;;;;;;;5.30;2.83;;;28.90;48.30;;;;;;4931853;28;45273;-56
2022/06/23 07:49:33;;;;;;;4.07;2.70;;;28.90;48.10;;;;;;4933368;28;45726;-57
2022/06/23 07:51:59;;;;;;;3.03;2.80;;;29.00;48.10;;;;;;4923622;28;45533;-58
2022/06/23 07:54:25;;;;;;;6.55;3.10;;;29.00;48.10;;;;;;4948462;28;45502;-58
2022/06/23 07:56:51;;;;;;;3.28;2.17;;;29.10;48.10;;;;;;4922399;28;45695;-56
2022/06/23 07:59:18;;;;;;;6.53;3.13;;;29.10;48.00;;;;;;4930653;28;45834;-58
2022/06/23 08:01:46;;;;;;;3.95;2.95;;;29.10;48.00;;;;;;4955836;28;44563;-59
2022/06/23 08:04:31;;;;;;;4.03;3.13;;;29.10;47.90;;;;;;4937597;28;45276;-59
2022/06/23 08:06:57;;;;;;;3.72;2.70;;;29.20;47.90;;;;;;4930973;28;45404;-59
2022/06/23 08:09:42;;;;;;;3.83;3.00;;;29.20;47.90;;;;;;4930963;28;45682;-59
2022/06/23 08:17:56;;;;;;;7.60;2.67;;;29.30;47.80;;;;;;4924108;28;45254;-59
2022/06/23 08:20:22;;;;;;;5.97;2.80;;;29.30;47.70;;;;;;4931409;28;47239;-57
2022/06/23 08:22:47;;;;;;;4.32;3.00;;;29.40;47.70;;;;;;4935538;28;45368;-57
2022/06/23 08:25:13;;;;;;;5.55;2.97;;;29.40;47.60;;;;;;4920179;28;45411;-55
2022/06/23 08:27:40;;;;;;;4.95;2.97;;;29.40;47.50;;;;;;4933439;28;44774;-56
2022/06/23 08:30:11;;;;;;;3.95;2.92;;;29.40;47.60;;;;;;4919157;28;45958;-57
2022/06/23 08:32:38;;;;;;;4.68;3.17;;;29.50;47.60;;;;;;4936282;28;44963;-56
2022/06/23 08:35:06;;;;;;;5.18;2.75;;;29.50;47.50;;;;;;4946110;28;45289;-55
2022/06/23 08:37:34;;;;;;;4.18;2.78;;;29.50;47.50;;;;;;4938656;28;45063;-56
2022/06/23 08:40:05;;;;;;;7.28;2.95;;;29.50;47.50;;;;;;4934528;28;46202;-55
2022/06/23 08:42:50;;;;;;;4.40;3.13;;;29.60;47.50;;;;;;4923532;28;44651;-54
2022/06/23 08:45:44;;;;;;;3.17;2.60;;;29.60;47.50;;;;;;4946154;28;45586;-55
2022/06/23 08:48:38;;;;;;;7.03;2.50;;;29.60;47.50;;;;;;4930522;28;45477;-55
2022/06/23 08:51:16;;;;;;;3.30;2.63;;;29.60;47.40;;;;;;4906650;28;45168;-56
2022/06/23 08:54:00;;;;;;;4.15;2.78;;;29.70;47.40;;;;;;4948505;28;45585;-56
2022/06/23 08:56:35;;;;;;;3.67;2.67;;;29.70;47.30;;;;;;4948956;28;45052;-57
2022/06/23 08:59:22;;;;;;;4.90;2.83;;;29.70;47.30;;;;;;4939541;28;45321;-56
2022/06/23 09:02:11;;;;;;;4.38;2.72;;;29.70;47.20;;;;;;4919377;28;46353;-55
2022/06/23 09:04:58;;;;;;;3.33;3.00;;;29.70;47.20;;;;;;4919333;28;45507;-58
2022/06/23 09:08:13;;;;;;;2.75;2.45;;;29.80;47.30;;;;;;4939238;28;44703;-58
2022/06/23 09:10:51;;;;;;;7.32;2.78;;;29.80;47.20;;;;;;4877646;28;45509;-57
2022/06/23 09:13:37;;;;;;;2.80;2.47;;;29.90;47.20;;;;;;4939616;28;46134;-59
2022/06/23 09:16:09;;;;;;;3.72;3.00;;;29.90;47.00;;;;;;4938451;28;45157;-57
2022/06/23 09:19:13;;;;;;;2.93;2.60;;;29.90;47.00;;;;;;4922390;28;45186;-66
2022/06/23 09:22:03;;;;;;;5.85;2.47;;;29.90;47.00;;;;;;4943970;28;44762;-62
2022/06/23 09:24:47;;;;;;;3.75;2.60;;;30.00;47.00;;;;;;4924303;28;45936;-63
2022/06/23 09:27:43;;;;;;;3.83;2.75;;;30.00;47.00;;;;;;4918491;28;45505;-60
2022/06/23 09:30:15;;;;;;;4.88;2.95;;;30.10;47.00;;;;;;4928788;28;45287;-61
2022/06/23 09:32:47;;;;;;;3.85;2.75;;;30.00;46.90;;;;;;4906559;28;45181;-64
2022/06/23 09:35:16;;;;;;;;;;;30.10;46.90;;;;;;4937016;28;46076;-62
2022/06/23 09:38:07;;;;;;;4.68;2.70;;;30.10;46.90;;;;;;4947897;28;45255;-60
2022/06/23 09:40:33;;;;;;;3.30;2.45;;;30.20;46.80;;;;;;4926064;28;45523;-61
2022/06/23 09:43:08;;;;;;;4.40;3.05;;;30.20;46.80;;;;;;4947686;28;45153;-64
2022/06/23 09:45:52;;;;;;;4.45;2.60;;;30.20;46.80;;;;;;4935936;28;46019;-60
2022/06/23 09:48:27;;;;;;;4.55;2.63;;;30.20;46.70;;;;;;4934545;28;45144;-60
2022/06/23 09:51:20;;;;;;;3.75;2.50;;;30.20;46.70;;;;;;4924802;28;46808;-61
2022/06/23 09:54:24;;;;;;;3.85;2.58;;;30.30;46.70;;;;;;4946661;28;45547;-64
2022/06/23 09:56:59;;;;;;;;;;;30.30;46.60;;;;;;4910164;28;46305;-65
2022/06/23 10:00:02;;;;;;;2.55;2.20;;;30.30;46.60;;;;;;4938038;28;45502;-66
2022/06/23 10:02:34;;;;;;;3.85;2.42;;;30.40;46.50;;;;;;4930199;28;45229;-61
2022/06/23 10:05:37;;;;;;;3.63;2.60;;;30.40;46.60;;;;;;4939249;28;45478;-65
2022/06/23 10:08:06;;;;;;;4.47;2.55;;;30.40;46.40;;;;;;4940945;28;45815;-62
2022/06/23 10:10:50;;;;;;;3.88;2.92;;;30.40;46.40;;;;;;4939291;28;45175;-63
2022/06/23 10:13:43;;;;;;;4.32;2.45;;;30.50;46.20;;;;;;4939735;28;45561;-64
2022/06/23 10:16:15;;;;;;;6.00;2.72;;;30.50;46.20;;;;;;4939258;28;45641;-74
2022/06/23 10:19:06;;;;;;;3.78;2.80;;;30.50;46.10;;;;;;4926297;28;46212;-59
2022/06/23 10:21:58;;;;;;;3.88;2.78;;;30.50;46.00;;;;;;4923441;28;45257;-62
2022/06/23 10:24:31;;;;;;;3.67;2.80;;;30.60;46.00;;;;;;4928585;28;45069;-62
2022/06/23 10:27:36;;;;;;;5.15;2.60;;;30.60;46.00;;;;;;4931110;28;45344;-68
2022/06/23 10:30:20;;;;;;;3.05;2.47;;;30.60;45.90;;;;;;4924008;28;46717;-65
2022/06/23 10:32:53;;;;;;;3.72;2.35;;;30.60;46.00;;;;;;4939756;28;45485;-60
2022/06/23 10:35:41;;;;;;;4.95;2.55;;;30.60;45.90;;;;;;4927603;28;45568;-59
2022/06/23 10:38:09;;;;;;;4.80;3.15;;;30.60;45.70;;;;;;4938298;28;45204;-62
2022/06/23 10:41:02;;;;;;;5.60;2.85;;;30.60;45.90;;;;;;4939829;28;45132;-62
2022/06/23 10:44:03;;;;;;;2.90;2.60;;;30.60;45.70;;;;;;4925573;28;45348;-62
2022/06/23 10:46:57;;;;;;;8.13;2.45;;;30.60;45.60;;;;;;4927157;28;44906;-63
2022/06/23 10:49:28;;;;;;;6.25;2.83;;;30.70;45.60;;;;;;4941519;28;44865;-61
2022/06/23 10:52:16;;;;;;;2.75;2.45;;;30.70;45.70;;;;;;4935391;28;45953;-59
2022/06/23 10:54:48;;;;;;;4.35;2.65;;;30.70;45.70;;;;;;4924227;28;45179;-59
2022/06/23 10:57:29;;;;;;;3.90;2.47;;;30.70;45.60;;;;;;4921239;28;45351;-61
2022/06/23 10:59:58;;;;;;;3.97;2.63;;;30.70;45.50;;;;;;4932726;28;44801;-60
2022/06/23 11:02:38;;;;;;;3.50;2.72;;;30.70;45.50;;;;;;4907086;28;46013;-61
2022/06/23 11:05:24;;;;;;;4.10;2.90;;;30.80;45.40;;;;;;4926951;28;45308;-63
2022/06/23 11:07:59;;;;;;;3.88;2.92;;;30.70;45.20;;;;;;4929502;28;45250;-60
2022/06/23 11:10:24;;;;;;;4.05;2.85;;;30.80;45.30;;;;;;4909920;28;45850;-71
2022/06/23 11:13:05;;;;;;;3.22;2.72;;;30.80;45.40;;;;;;4923756;28;45667;-69
2022/06/23 11:15:49;;;;;;;7.47;2.55;;;30.80;45.30;;;;;;4930584;28;45199;-61
2022/06/23 11:18:44;;;;;;;6.07;2.80;;;30.80;45.30;;;;;;4932707;28;45182;-59
2022/06/23 11:21:25;;;;;;;4.22;2.67;;;30.80;45.10;;;;;;4928886;28;46343;-61
2022/06/23 11:24:06;;;;;;;2.78;2.38;;;30.90;45.30;;;;;;4904451;28;46224;-60
2022/06/23 11:26:47;;;;;;;4.60;2.70;;;30.90;45.20;;;;;;4928978;28;45192;-60
2022/06/23 11:29:54;;;;;;;4.55;2.60;;;30.90;45.20;;;;;;4931985;28;45651;-64
2022/06/23 11:32:40;;;;;;;;;;;31.00;45.10;;;;;;4909319;28;44865;-66
2022/06/23 11:35:08;;;;;;;3.80;2.38;;;30.90;45.10;;;;;;4925034;28;46121;-66
2022/06/23 11:37:56;;;;;;;4.00;2.80;;;31.00;45.30;;;;;;4924414;28;46390;-62
2022/06/23 11:40:49;;;;;;;2.75;2.17;;;30.90;45.20;;;;;;4917356;28;45929;-67
2022/06/23 11:43:19;;;;;;;4.88;2.53;;;31.00;45.20;;;;;;4921409;28;45398;-63
2022/06/23 11:46:19;;;;;;;4.07;2.70;;;31.00;45.20;;;;;;4901748;28;46152;-62
2022/06/23 11:48:44;;;;;;;2.85;2.30;;;31.00;45.10;;;;;;4906051;28;45594;-65
2022/06/23 11:51:31;;;;;;;3.63;2.53;;;31.00;45.70;;;;;;4918081;28;45439;-63
2022/06/23 11:54:25;;;;;;;3.25;2.75;;;31.10;45.20;;;;;;4922017;28;45920;-62
2022/06/23 11:57:27;;;;;;;3.20;2.42;;;31.10;45.20;;;;;;4920601;28;46354;-62
2022/06/23 12:00:13;;;;;;;6.72;2.22;;;31.10;45.10;;;;;;4920753;28;44673;-60
2022/06/23 12:03:01;;;;;;;2.55;2.30;;;31.10;45.10;;;;;;4889280;28;44711;-59
2022/06/23 12:05:39;;;;;;;3.50;2.35;;;31.10;45.10;;;;;;4886587;28;45761;-58
2022/06/23 12:08:27;;;;;;;4.70;2.30;;;31.20;45.20;;;;;;4901468;28;47096;-64
2022/06/23 12:10:53;;;;;;;3.00;2.50;;;31.10;45.20;;;;;;4908717;28;44954;-62
2022/06/23 12:13:18;;;;;;;6.68;2.50;;;31.20;45.20;;;;;;4923044;28;45218;-64
2022/06/23 12:15:49;;;;;;;3.55;2.45;;;31.20;45.30;;;;;;4906304;28;45332;-61
2022/06/23 12:18:22;;;;;;;5.60;3.55;;;31.20;45.20;;;;;;4903524;28;46018;-61
2022/06/23 12:20:55;;;;;;;3.25;2.15;;;31.20;45.20;;;;;;4899914;28;45634;-64
2022/06/23 12:23:35;;;;;;;3.30;2.40;;;31.20;45.20;;;;;;4920172;28;44804;-65
2022/06/23 12:26:09;;;;;;;5.70;2.53;;;31.20;45.20;;;;;;4913053;28;45301;-61
2022/06/23 12:28:49;;;;;;;2.53;2.33;;;31.20;45.20;;;;;;4903555;28;46819;-63
2022/06/23 12:31:29;;;;;;;2.63;2.10;;;31.20;45.20;;;;;;4906409;28;45246;-64
2022/06/23 12:34:39;;;;;;;3.08;2.42;;;31.30;45.30;;;;;;4905861;28;44628;-62
2022/06/23 12:37:18;;;;;;;4.40;2.58;;;31.20;45.20;;;;;;4856626;29;45146;-58
2022/06/23 12:40:07;;;;;;;3.85;2.70;;;31.20;45.20;;;;;;4838204;29;45994;-60
2022/06/23 12:42:56;;;;;;;4.53;2.80;;;31.20;45.20;;;;;;4893135;28;45145;-65
2022/06/23 12:45:33;;;;;;;5.07;2.90;;;31.20;45.30;;;;;;4895922;28;45214;-67
2022/06/23 12:48:23;;;;;;;3.63;3.03;;;31.20;45.40;;;;;;4898261;28;45700;-66
2022/06/23 12:50:57;;;;;;;7.20;2.70;;;31.10;45.50;;;;;;4911201;28;46037;-61
2022/06/23 12:54:01;;;;;;;6.18;3.15;;;31.00;45.60;;;;;;4918993;28;45166;-64
2022/06/23 12:56:35;;;;;;;5.60;2.67;;;31.00;45.70;;;;;;4921694;28;45265;-63
2022/06/23 12:59:18;;;;;;;3.83;2.78;;;31.00;45.80;;;;;;4910790;28;45312;-64
2022/06/23 13:02:18;;;;;;;6.15;2.72;;;31.00;45.90;;;;;;4930317;28;46078;-63
2022/06/23 13:04:52;;;;;;;6.70;3.08;;;31.00;46.00;;;;;;4910150;28;45329;-62
2022/06/23 13:07:40;;;;;;;3.80;2.70;;;30.90;46.00;;;;;;4920577;28;44833;-65
2022/06/23 13:10:58;;;;;;;4.15;3.00;;;30.90;46.00;;;;;;4921094;28;45322;-62
2022/06/23 13:13:25;;;;;;;5.40;2.97;;;30.90;46.00;;;;;;4914614;28;45587;-66
2022/06/23 13:16:10;;;;;;;4.80;2.70;;;30.90;46.10;;;;;;4934954;28;44603;-63
2022/06/23 13:19:12;;;;;;;4.03;2.95;;;30.90;46.20;;;;;;4933496;28;45477;-62
2022/06/23 13:21:40;;;;;;;4.95;2.75;;;30.90;46.20;;;;;;4917596;28;45621;-63
2022/06/23 13:24:21;;;;;;;3.33;3.03;;;30.90;46.20;;;;;;4920857;28;46011;-64
2022/06/23 13:26:58;;;;;;;3.08;2.55;;;30.90;46.20;;;;;;4939880;28;45240;-62
2022/06/23 13:29:27;;;;;;;2.97;2.67;;;30.90;46.30;;;;;;4933091;28;44746;-56
2022/06/23 13:31:58;;;;;;;7.32;3.25;;;30.90;46.20;;;;;;4919050;28;45417;-63
2022/06/23 13:34:31;;;;;;;4.15;2.47;;;30.90;46.30;;;;;;4937566;28;45061;-62
2022/06/23 13:37:13;;;;;;;4.93;3.00;;;30.90;46.20;;;;;;4924032;28;45439;-60
2022/06/23 13:39:51;;;;;;;6.55;2.90;;;30.90;46.30;;;;;;4918174;28;45485;-62
2022/06/23 13:42:29;;;;;;;3.92;2.63;;;30.90;46.30;;;;;;4917655;28;45463;-64
2022/06/23 13:45:06;;;;;;;4.28;2.53;;;30.80;46.30;;;;;;4925657;28;46276;-66
2022/06/23 13:47:51;;;;;;;4.63;2.60;;;30.90;46.30;;;;;;4905316;28;45386;-61
2022/06/23 13:50:37;;;;;;;4.65;2.60;;;30.90;46.40;;;;;;4924618;28;45674;-63
2022/06/23 13:53:23;;;;;;;3.72;2.80;;;30.90;46.40;;;;;;4936410;28;45441;-63
2022/06/23 13:56:05;;;;;;;8.23;3.35;;;30.90;46.40;;;;;;4919208;28;44958;-62
2022/06/23 13:58:49;;;;;;;3.92;2.70;;;30.90;46.50;;;;;;4920931;28;44747;-60
2022/06/23 14:01:21;;;;;;;5.43;2.80;;;30.90;47.10;;;;;;4936167;28;45699;-62
2022/06/23 14:04:28;;;;;;;3.55;2.38;;;30.90;46.50;;;;;;4921406;28;45627;-64
2022/06/23 14:07:10;;;;;;;3.72;2.85;;;30.90;46.50;;;;;;4920891;28;45483;-61
2022/06/23 14:09:55;;;;;;;3.37;2.80;;;30.90;46.50;;;;;;4920130;28;45284;-61
2022/06/23 14:12:46;;;;;;;3.35;2.40;;;30.90;46.50;;;;;;4924998;28;45380;-68
2022/06/23 14:15:34;;;;;;;4.40;2.60;;;30.90;46.50;;;;;;4913484;28;45732;-61
2022/06/23 14:18:14;;;;;;;4.05;2.80;;;30.90;46.50;;;;;;4922377;28;47129;-61
2022/06/23 14:20:42;;;;;;;3.50;2.67;;;30.90;46.50;;;;;;4922097;28;45522;-66
2022/06/23 14:23:21;;;;;;;4.25;2.70;;;30.90;46.50;;;;;;4936218;28;45169;-64
2022/06/23 14:26:01;;;;;;;4.32;2.60;;;30.90;46.50;;;;;;4932025;28;45317;-60
2022/06/23 14:28:37;;;;;;;2.95;2.47;;;30.90;46.50;;;;;;4920114;28;46124;-59
2022/06/23 14:31:09;;;;;;;3.28;2.47;;;30.90;46.40;;;;;;4921164;28;45438;-65
2022/06/23 14:33:52;;;;;;;3.38;2.33;;;30.90;46.40;;;;;;4905465;28;45166;-62
2022/06/23 14:36:50;;;;;;;6.68;2.50;;;31.00;46.50;;;;;;4901530;28;45297;-63
2022/06/23 14:39:45;;;;;;;4.32;2.67;;;31.00;46.40;;;;;;4933329;28;46107;-63
2022/06/23 14:42:29;;;;;;;3.10;2.50;;;31.00;46.40;;;;;;4934118;28;45587;-63
2022/06/23 14:45:07;;;;;;;2.75;2.50;;;31.00;46.40;;;;;;4931502;28;45125;-65
2022/06/23 14:47:52;;;;;;;3.53;2.50;;;31.00;46.40;;;;;;4932846;28;45199;-62
2022/06/23 14:50:24;;;;;;;2.63;2.20;;;31.00;46.30;;;;;;4921181;28;46002;-62
2022/06/23 14:53:31;;;;;;;2.92;2.40;;;31.00;46.30;;;;;;4934923;28;45067;-62
2022/06/23 14:56:34;;;;;;;5.35;2.83;;;31.00;46.30;;;;;;4893450;29;44701;-61
2022/06/23 14:59:19;;;;;;;5.60;2.20;;;31.00;46.30;;;;;;4893857;29;45055;-62
2022/06/23 15:01:51;;;;;;;3.05;2.45;;;31.00;46.40;;;;;;4909569;28;46900;-65
2022/06/23 15:04:23;;;;;;;3.95;2.67;;;31.00;46.30;;;;;;4932999;28;45257;-62
2022/06/23 15:06:53;;;;;;;4.68;2.60;;;31.00;46.30;;;;;;4926744;28;45410;-64
2022/06/23 15:09:29;;;;;;;5.18;2.33;;;31.00;46.30;;;;;;4921935;28;45372;-64
2022/06/23 15:12:02;;;;;;;3.58;2.30;;;31.00;46.20;;;;;;4927592;28;47185;-65
2022/06/23 15:14:31;;;;;;;;;;;31.00;46.20;;;;;;4918824;28;45359;-63
2022/06/23 15:16:59;;;;;;;2.55;2.08;;;31.00;46.80;;;;;;4936564;28;44943;-60
2022/06/23 15:19:35;;;;;;;4.82;2.60;;;31.00;46.20;;;;;;4935481;28;45353;-61
2022/06/23 15:25:09;;;;;;;3.40;2.47;;;31.10;46.20;;;;;;4926049;28;45086;-63
2022/06/23 15:27:40;;;;;;;3.42;2.00;;;31.00;46.10;;;;;;4926743;28;45506;-62
2022/06/23 15:30:13;;;;;;;3.20;2.67;;;31.10;46.20;;;;;;4919375;28;45256;-62
2022/06/23 15:33:05;;;;;;;5.38;2.60;;;31.10;46.10;;;;;;4915498;28;45511;-58
2022/06/23 15:36:03;;;;;;;3.40;2.47;;;31.10;46.10;;;;;;4921573;28;44635;-65
2022/06/23 15:38:47;;;;;;;6.85;2.53;;;31.10;46.00;;;;;;4912112;28;44870;-61
2022/06/23 15:41:30;;;;;;;4.38;2.70;;;31.10;46.10;;;;;;4934996;28;45254;-63
2022/06/23 15:44:10;;;;;;;5.13;2.10;;;31.10;46.10;;;;;;4905004;28;45126;-60
2022/06/23 15:46:48;;;;;;;3.42;2.17;;;31.10;46.10;;;;;;4920880;28;44744;-65
2022/06/23 15:49:13;;;;;;;4.25;2.15;;;31.20;46.10;;;;;;4924865;28;45036;-63
2022/06/23 15:51:42;;;;;;;4.53;2.20;;;31.10;46.10;;;;;;4935691;28;45434;-64
2022/06/23 15:54:44;;;;;;;2.45;1.90;;;31.10;46.10;;;;;;4912652;28;46160;-64
2022/06/23 15:57:21;;;;;;;2.25;1.90;;;31.20;46.00;;;;;;4939559;28;45475;-62
2022/06/23 16:00:10;;;;;;;2.33;2.10;;;31.20;45.80;;;;;;4937310;28;45325;-64
2022/06/23 16:03:13;;;;;;;3.65;1.95;;;31.30;45.60;;;;;;4925216;28;45468;-63
2022/06/23 16:05:54;;;;;;;2.45;1.90;;;31.40;45.50;;;;;;4896124;28;45415;-68
2022/06/23 16:08:19;;;;;;;2.55;1.75;;;31.40;45.50;;;;;;4932744;28;45542;-63
2022/06/23 16:11:00;;;;;;;2.05;1.63;;;31.40;45.50;;;;;;4914169;28;46297;-66
2022/06/23 16:13:32;;;;;;;3.90;2.28;;;31.40;45.30;;;;;;4916725;28;45733;-65
2022/06/23 16:16:03;;;;;;;3.90;1.77;;;31.40;45.40;;;;;;4899845;28;45909;-64
2022/06/23 16:18:37;;;;;;;2.92;2.03;;;31.40;45.30;;;;;;4886705;28;44786;-63
2022/06/23 16:21:06;;;;;;;4.18;2.15;;;31.40;45.20;;;;;;4901782;28;45417;-65
2022/06/23 16:23:41;;;;;;;2.85;1.90;;;31.40;45.30;;;;;;4916440;28;45534;-69
2022/06/23 16:26:14;;;;;;;3.20;2.05;;;31.40;45.20;;;;;;4931199;28;47118;-64
2022/06/23 16:28:47;;;;;;;5.80;2.03;;;31.40;45.10;;;;;;4932950;28;47733;-66
2022/06/23 16:31:29;;;;;;;3.28;1.83;;;31.40;45.10;;;;;;4911980;28;45301;-65
2022/06/23 16:34:36;;;;;;;2.83;2.10;;;31.40;45.00;;;;;;4932217;28;45529;-61
2022/06/23 16:37:09;;;;;;;2.97;2.00;;;31.40;44.90;;;;;;4911993;28;46133;-63
2022/06/23 16:40:00;;;;;;;4.47;2.13;;;31.40;45.00;;;;;;4933571;28;45011;-62
2022/06/23 16:42:50;;;;;;;3.03;1.70;;;31.40;45.00;;;;;;4932597;28;45204;-63
2022/06/23 16:45:34;;;;;;;2.28;1.92;;;31.50;44.80;;;;;;4917976;28;45327;-67
2022/06/23 16:48:30;;;;;;;3.28;2.03;;;31.50;45.00;;;;;;4917648;28;46264;-64
2022/06/23 16:51:07;;;;;;;2.38;1.70;;;31.50;44.80;;;;;;4920607;28;44705;-64
2022/06/23 16:53:36;;;;;;;2.80;1.92;;;31.50;44.80;;;;;;4916694;28;45325;-62
2022/06/23 16:56:15;;;;;;;2.83;2.13;;;31.50;44.90;;;;;;4932693;28;45453;-63
2022/06/23 16:58:50;;;;;;;3.22;1.90;;;31.50;44.70;;;;;;4913438;28;45610;-61
2022/06/23 17:01:33;;;;;;;3.42;2.13;;;31.50;44.80;;;;;;4931155;28;45333;-66
2022/06/23 17:04:23;;;;;;;2.55;1.80;;;31.50;44.60;;;;;;4900754;28;45368;-72
2022/06/23 17:06:54;;;;;;;2.90;1.77;;;31.50;44.50;;;;;;4930047;28;45615;-68
2022/06/23 17:09:44;;;;;;;2.58;1.73;;;31.50;44.60;;;;;;4917097;28;47233;-64
2022/06/23 17:12:16;;;;;;;4.97;1.88;;;31.50;44.40;;;;;;4931475;28;45094;-66